WAT439 HCMM-HAAB
Flight info
| Callsign | WAT439 |
|---|---|
| Flight time | 1h 33m |
| Altitude | 36000 |
| Route | MOGDU UM313 MAV UQ555 IMKIT IMKIT1A |
| Aircraft | B738/M-SDE2E3FGHIRWXY/LB1 |
Departure
| Time | 2026-05-04 09:46 |
|---|---|
| Airport | Aden Adde International Airport (HCMM) |
Arrival
| Time | 2026-05-04 11:19 |
|---|---|
| Airport | Addis Ababa Bole International Airport (HAAB) |
| Time | Latitude | Longitude | Altitude | Speed | Heading |
|---|---|---|---|---|---|
| 2026-05-04 09:18 | 2.01689 | 45.30387 | 33 ft | 0 kts | 320° |
| 2026-05-04 09:37 | 2.01662 | 45.30410 | 32 ft | 2 kts | 320° |
| 2026-05-04 09:37 | 2.01655 | 45.30416 | 32 ft | 2 kts | 314° |
| 2026-05-04 09:38 | 2.01648 | 45.30429 | 32 ft | 2 kts | 277° |
| 2026-05-04 09:38 | 2.01649 | 45.30444 | 32 ft | 2 kts | 248° |
| 2026-05-04 09:38 | 2.01653 | 45.30452 | 32 ft | 1 kts | 230° |
| 2026-05-04 09:38 | 2.01658 | 45.30457 | 32 ft | 0 kts | 230° |
| 2026-05-04 09:40 | 2.01658 | 45.30456 | 32 ft | 0 kts | 230° |
| 2026-05-04 09:40 | 2.01635 | 45.30431 | 32 ft | 7 kts | 229° |
| 2026-05-04 09:41 | 2.01599 | 45.30400 | 31 ft | 6 kts | 181° |
| 2026-05-04 09:42 | 2.01759 | 45.30843 | 26 ft | 16 kts | 49° |
| 2026-05-04 09:43 | 2.01834 | 45.30930 | 25 ft | 16 kts | 50° |
| 2026-05-04 09:43 | 2.01914 | 45.31024 | 26 ft | 22 kts | 50° |
| 2026-05-04 09:43 | 2.02038 | 45.31174 | 26 ft | 32 kts | 50° |
| 2026-05-04 09:43 | 2.02186 | 45.31339 | 26 ft | 31 kts | 43° |
| 2026-05-04 09:44 | 2.02280 | 45.31440 | 25 ft | 6 kts | 71° |
| 2026-05-04 09:44 | 2.02264 | 45.31439 | 25 ft | 3 kts | 221° |
| 2026-05-04 09:44 | 2.02227 | 45.31397 | 25 ft | 27 kts | 230° |
| 2026-05-04 09:46 | 1.99067 | 45.25372 | 3364 ft | 178 kts | 294° |
| 2026-05-04 09:46 | 1.99682 | 45.24292 | 3949 ft | 182 kts | 298° |
| 2026-05-04 09:46 | 2.00349 | 45.23164 | 4361 ft | 199 kts | 298° |
| 2026-05-04 09:47 | 2.01067 | 45.21926 | 4886 ft | 212 kts | 298° |
| 2026-05-04 09:47 | 2.01823 | 45.20614 | 5437 ft | 225 kts | 299° |
| 2026-05-04 09:49 | 2.08235 | 45.09513 | 9811 ft | 290 kts | 300° |
| 2026-05-04 09:49 | 2.09244 | 45.07764 | 10452 ft | 298 kts | 300° |
| 2026-05-04 09:49 | 2.10302 | 45.05929 | 10892 ft | 313 kts | 301° |
| 2026-05-04 09:51 | 2.17530 | 44.93411 | 14110 ft | 366 kts | 301° |
| 2026-05-04 09:51 | 2.18803 | 44.91205 | 14692 ft | 371 kts | 301° |
| 2026-05-04 09:51 | 2.20107 | 44.88946 | 15310 ft | 375 kts | 301° |
| 2026-05-04 09:51 | 2.21407 | 44.86696 | 15894 ft | 379 kts | 301° |
| 2026-05-04 09:52 | 2.22738 | 44.84390 | 16484 ft | 383 kts | 301° |
| 2026-05-04 09:52 | 2.24080 | 44.82065 | 17044 ft | 386 kts | 301° |
| 2026-05-04 09:52 | 2.25427 | 44.79731 | 17581 ft | 391 kts | 301° |
| 2026-05-04 09:52 | 2.26786 | 44.77375 | 18082 ft | 396 kts | 301° |
| 2026-05-04 09:53 | 2.28162 | 44.74991 | 18588 ft | 400 kts | 301° |
| 2026-05-04 09:53 | 2.29569 | 44.72554 | 19087 ft | 404 kts | 301° |
| 2026-05-04 09:53 | 2.30973 | 44.70123 | 19579 ft | 408 kts | 301° |
| 2026-05-04 09:53 | 2.32408 | 44.67639 | 20060 ft | 413 kts | 301° |
| 2026-05-04 09:54 | 2.33854 | 44.65136 | 20510 ft | 417 kts | 301° |
| 2026-05-04 09:54 | 2.35304 | 44.62626 | 21001 ft | 421 kts | 301° |
| 2026-05-04 09:54 | 2.36773 | 44.60081 | 21454 ft | 425 kts | 301° |
| 2026-05-04 09:54 | 2.38264 | 44.57499 | 21870 ft | 430 kts | 301° |
| 2026-05-04 09:55 | 2.39763 | 44.54901 | 22344 ft | 433 kts | 301° |
| 2026-05-04 09:55 | 2.41262 | 44.52301 | 22779 ft | 437 kts | 301° |
| 2026-05-04 09:55 | 2.42774 | 44.49678 | 23243 ft | 439 kts | 301° |
| 2026-05-04 09:55 | 2.44297 | 44.47037 | 23733 ft | 441 kts | 301° |
| 2026-05-04 09:56 | 2.45855 | 44.44336 | 24166 ft | 444 kts | 301° |
| 2026-05-04 09:56 | 2.47399 | 44.41660 | 24598 ft | 447 kts | 301° |
| 2026-05-04 09:56 | 2.48957 | 44.38959 | 25051 ft | 449 kts | 301° |
| 2026-05-04 09:56 | 2.50517 | 44.36253 | 25450 ft | 452 kts | 301° |
| 2026-05-04 09:57 | 2.52084 | 44.33537 | 25854 ft | 455 kts | 301° |
| 2026-05-04 09:57 | 2.53677 | 44.30774 | 26236 ft | 458 kts | 301° |
| 2026-05-04 09:57 | 2.55267 | 44.28015 | 26596 ft | 461 kts | 301° |
| 2026-05-04 09:57 | 2.56862 | 44.25249 | 26993 ft | 463 kts | 301° |
| 2026-05-04 09:58 | 2.58476 | 44.22450 | 27342 ft | 466 kts | 301° |
| 2026-05-04 09:58 | 2.60107 | 44.19621 | 27723 ft | 468 kts | 301° |
| 2026-05-04 09:58 | 2.61745 | 44.16777 | 28070 ft | 471 kts | 301° |
| 2026-05-04 10:00 | 2.73283 | 43.96747 | 31114 ft | 472 kts | 301° |
| 2026-05-04 10:00 | 2.74911 | 43.93918 | 31631 ft | 469 kts | 301° |
| 2026-05-04 10:02 | 2.86222 | 43.74272 | 34519 ft | 464 kts | 301° |
| 2026-05-04 10:04 | 2.97504 | 43.54664 | 35982 ft | 462 kts | 301° |
| 2026-05-04 10:04 | 3.00702 | 43.49107 | 35992 ft | 462 kts | 301° |
| 2026-05-04 10:05 | 3.03921 | 43.43511 | 35992 ft | 462 kts | 301° |
| 2026-05-04 10:05 | 3.07112 | 43.37963 | 35992 ft | 462 kts | 301° |
| 2026-05-04 10:06 | 3.10329 | 43.32368 | 35990 ft | 462 kts | 301° |
| 2026-05-04 10:06 | 3.13537 | 43.26786 | 35989 ft | 461 kts | 301° |
| 2026-05-04 10:08 | 3.24718 | 43.07333 | 35977 ft | 461 kts | 301° |
| 2026-05-04 10:08 | 3.27914 | 43.01772 | 35974 ft | 461 kts | 301° |
| 2026-05-04 10:09 | 3.31126 | 42.96180 | 35971 ft | 461 kts | 301° |
| 2026-05-04 10:09 | 3.34297 | 42.90659 | 35966 ft | 461 kts | 301° |
| 2026-05-04 10:10 | 3.37506 | 42.85071 | 35963 ft | 461 kts | 301° |
| 2026-05-04 10:10 | 3.40703 | 42.79501 | 35959 ft | 462 kts | 301° |
| 2026-05-04 10:11 | 3.43877 | 42.73973 | 35950 ft | 461 kts | 301° |
| 2026-05-04 10:11 | 3.47071 | 42.68407 | 35942 ft | 461 kts | 301° |
| 2026-05-04 10:12 | 3.50259 | 42.62853 | 35938 ft | 461 kts | 301° |
| 2026-05-04 10:12 | 3.53451 | 42.57292 | 35933 ft | 461 kts | 301° |
| 2026-05-04 10:13 | 3.56656 | 42.51705 | 35929 ft | 461 kts | 301° |
| 2026-05-04 10:13 | 3.59847 | 42.46141 | 35928 ft | 462 kts | 301° |
| 2026-05-04 10:14 | 3.63044 | 42.40564 | 35934 ft | 461 kts | 301° |
| 2026-05-04 10:16 | 3.75802 | 42.18314 | 35944 ft | 461 kts | 301° |
| 2026-05-04 10:16 | 3.78993 | 42.12745 | 35944 ft | 461 kts | 301° |
| 2026-05-04 10:17 | 3.82172 | 42.07196 | 35943 ft | 460 kts | 301° |
| 2026-05-04 10:19 | 3.94948 | 41.84941 | 35934 ft | 460 kts | 303° |
| 2026-05-04 10:19 | 3.98486 | 41.79631 | 35935 ft | 460 kts | 307° |
| 2026-05-04 10:20 | 4.02210 | 41.74409 | 35936 ft | 459 kts | 307° |
| 2026-05-04 10:20 | 4.05902 | 41.69234 | 35944 ft | 459 kts | 307° |
| 2026-05-04 10:21 | 4.09588 | 41.64005 | 35951 ft | 459 kts | 306° |
| 2026-05-04 10:21 | 4.13269 | 41.58737 | 35964 ft | 459 kts | 306° |
| 2026-05-04 10:22 | 4.18727 | 41.50883 | 35971 ft | 457 kts | 306° |
| 2026-05-04 10:23 | 4.22348 | 41.45661 | 35973 ft | 457 kts | 306° |
| 2026-05-04 10:25 | 4.36923 | 41.24625 | 36012 ft | 458 kts | 306° |
| 2026-05-04 10:25 | 4.40542 | 41.19400 | 36025 ft | 458 kts | 306° |
| 2026-05-04 10:26 | 4.44197 | 41.14122 | 36037 ft | 458 kts | 306° |
| 2026-05-04 10:26 | 4.47836 | 41.08865 | 36050 ft | 459 kts | 306° |
| 2026-05-04 10:27 | 4.51480 | 41.03602 | 36057 ft | 459 kts | 306° |
| 2026-05-04 10:27 | 4.55112 | 40.98353 | 36068 ft | 458 kts | 306° |
| 2026-05-04 10:28 | 4.58746 | 40.93100 | 36068 ft | 458 kts | 306° |
| 2026-05-04 10:28 | 4.62393 | 40.87826 | 36075 ft | 459 kts | 306° |
| 2026-05-04 10:29 | 4.66034 | 40.82561 | 36072 ft | 459 kts | 306° |
| 2026-05-04 10:29 | 4.69658 | 40.77320 | 36086 ft | 459 kts | 306° |
| 2026-05-04 10:30 | 4.73302 | 40.72050 | 36086 ft | 459 kts | 306° |
| 2026-05-04 10:30 | 4.76918 | 40.66822 | 36104 ft | 459 kts | 306° |
| 2026-05-04 10:31 | 4.80556 | 40.61563 | 36104 ft | 459 kts | 306° |
| 2026-05-04 10:32 | 4.93281 | 40.43160 | 36133 ft | 458 kts | 306° |
| 2026-05-04 10:33 | 4.96934 | 40.37874 | 36130 ft | 460 kts | 306° |
| 2026-05-04 10:33 | 5.00585 | 40.32591 | 36120 ft | 459 kts | 306° |
| 2026-05-04 10:34 | 5.04197 | 40.27361 | 36116 ft | 459 kts | 306° |
| 2026-05-04 10:34 | 5.07835 | 40.22092 | 36118 ft | 459 kts | 306° |
| 2026-05-04 10:35 | 5.11466 | 40.16832 | 36128 ft | 458 kts | 306° |
| 2026-05-04 10:35 | 5.15091 | 40.11580 | 36140 ft | 458 kts | 306° |
| 2026-05-04 10:36 | 5.18717 | 40.06326 | 36147 ft | 458 kts | 306° |
| 2026-05-04 10:36 | 5.22356 | 40.01051 | 36155 ft | 457 kts | 306° |
| 2026-05-04 10:37 | 5.25975 | 39.95806 | 36162 ft | 458 kts | 306° |
| 2026-05-04 10:37 | 5.29613 | 39.90533 | 36170 ft | 459 kts | 306° |
| 2026-05-04 10:39 | 5.42246 | 39.72213 | 36156 ft | 456 kts | 306° |
| 2026-05-04 10:40 | 5.45856 | 39.66974 | 36159 ft | 456 kts | 306° |
| 2026-05-04 10:40 | 5.49469 | 39.61732 | 36166 ft | 457 kts | 306° |
| 2026-05-04 10:41 | 5.53109 | 39.56451 | 36182 ft | 456 kts | 306° |
| 2026-05-04 10:41 | 5.56715 | 39.51216 | 36192 ft | 457 kts | 306° |
| 2026-05-04 10:42 | 5.60307 | 39.46001 | 36197 ft | 456 kts | 306° |
| 2026-05-04 10:42 | 5.64042 | 39.40863 | 36197 ft | 454 kts | 312° |
| 2026-05-04 10:42 | 5.66303 | 39.38670 | 36207 ft | 452 kts | 324° |
| 2026-05-04 10:43 | 5.68967 | 39.36995 | 36219 ft | 451 kts | 334° |
| 2026-05-04 10:45 | 5.92005 | 39.26916 | 36246 ft | 449 kts | 338° |
| 2026-05-04 10:45 | 5.97762 | 39.24394 | 36241 ft | 450 kts | 337° |
| 2026-05-04 10:46 | 6.03521 | 39.21854 | 36251 ft | 450 kts | 337° |
| 2026-05-04 10:46 | 6.09237 | 39.19326 | 36294 ft | 449 kts | 338° |
| 2026-05-04 10:47 | 6.15004 | 39.16773 | 36310 ft | 449 kts | 337° |
| 2026-05-04 10:47 | 6.20739 | 39.14232 | 36321 ft | 448 kts | 337° |
| 2026-05-04 10:49 | 6.43623 | 39.04089 | 36431 ft | 449 kts | 337° |
| 2026-05-04 10:50 | 6.49329 | 39.01559 | 36459 ft | 448 kts | 337° |
| 2026-05-04 10:52 | 6.72205 | 38.91409 | 36471 ft | 447 kts | 337° |
| 2026-05-04 10:52 | 6.77891 | 38.88883 | 36475 ft | 448 kts | 337° |
| 2026-05-04 10:54 | 7.00734 | 38.78738 | 36497 ft | 448 kts | 337° |
| 2026-05-04 10:56 | 7.23575 | 38.68578 | 36425 ft | 447 kts | 337° |
| 2026-05-04 10:57 | 7.29272 | 38.66042 | 36408 ft | 447 kts | 337° |
| 2026-05-04 10:57 | 7.35015 | 38.63486 | 36386 ft | 447 kts | 337° |
| 2026-05-04 10:58 | 7.40700 | 38.60954 | 36364 ft | 447 kts | 337° |
| 2026-05-04 10:58 | 7.46418 | 38.58407 | 36356 ft | 447 kts | 337° |
| 2026-05-04 10:59 | 7.52080 | 38.55885 | 36345 ft | 446 kts | 337° |
| 2026-05-04 10:59 | 7.57765 | 38.53351 | 36024 ft | 443 kts | 337° |
| 2026-05-04 10:59 | 7.60587 | 38.52092 | 35487 ft | 440 kts | 337° |
| 2026-05-04 11:00 | 7.63401 | 38.50836 | 34838 ft | 438 kts | 337° |
| 2026-05-04 11:01 | 7.83054 | 38.42071 | 30169 ft | 434 kts | 336° |
| 2026-05-04 11:02 | 7.85835 | 38.40830 | 29649 ft | 431 kts | 336° |
| 2026-05-04 11:02 | 7.88551 | 38.39618 | 29136 ft | 428 kts | 336° |
| 2026-05-04 11:05 | 8.25202 | 38.27213 | 22114 ft | 380 kts | 16° |
| 2026-05-04 11:06 | 8.27711 | 38.28080 | 21623 ft | 377 kts | 24° |
| 2026-05-04 11:06 | 8.30013 | 38.29318 | 21124 ft | 375 kts | 33° |
| 2026-05-04 11:06 | 8.32093 | 38.30845 | 20631 ft | 372 kts | 41° |
| 2026-05-04 11:06 | 8.33931 | 38.32698 | 20138 ft | 369 kts | 50° |
| 2026-05-04 11:08 | 8.47636 | 38.41342 | 17877 ft | 324 kts | 22° |
| 2026-05-04 11:10 | 8.61949 | 38.47075 | 15097 ft | 305 kts | 23° |
| 2026-05-04 11:12 | 8.74348 | 38.52789 | 13122 ft | 257 kts | 30° |
| 2026-05-04 11:12 | 8.75937 | 38.53664 | 12813 ft | 257 kts | 30° |
| 2026-05-04 11:12 | 8.77503 | 38.54507 | 12497 ft | 257 kts | 30° |
| 2026-05-04 11:12 | 8.79082 | 38.55353 | 12184 ft | 256 kts | 30° |
| 2026-05-04 11:13 | 8.80658 | 38.56198 | 11862 ft | 254 kts | 30° |
| 2026-05-04 11:13 | 8.82207 | 38.57050 | 11557 ft | 253 kts | 33° |
| 2026-05-04 11:13 | 8.83629 | 38.58069 | 11307 ft | 252 kts | 40° |
| 2026-05-04 11:13 | 8.84972 | 38.59200 | 11015 ft | 249 kts | 42° |
| 2026-05-04 11:14 | 8.86290 | 38.60342 | 10717 ft | 241 kts | 42° |
| 2026-05-04 11:14 | 8.87539 | 38.61379 | 10554 ft | 225 kts | 39° |
| 2026-05-04 11:14 | 8.88756 | 38.62286 | 10369 ft | 209 kts | 38° |
| 2026-05-04 11:16 | 8.94428 | 38.68766 | 9413 ft | 165 kts | 65° |
| 2026-05-04 11:16 | 8.94829 | 38.69859 | 9284 ft | 166 kts | 75° |
| 2026-05-04 11:16 | 8.95113 | 38.70979 | 9121 ft | 167 kts | 75° |
| 2026-05-04 11:17 | 8.95428 | 38.72115 | 8977 ft | 166 kts | 73° |
| 2026-05-04 11:17 | 8.95766 | 38.73233 | 8799 ft | 169 kts | 74° |
| 2026-05-04 11:19 | 8.97835 | 38.80417 | 7623 ft | 66 kts | 73° |
| 2026-05-04 11:19 | 8.97945 | 38.80643 | 7617 ft | 24 kts | 41° |
| 2026-05-04 11:19 | 8.98057 | 38.80743 | 7622 ft | 16 kts | 28° |
| 2026-05-04 11:19 | 8.98115 | 38.80690 | 7625 ft | 12 kts | 276° |
| 2026-05-04 11:20 | 8.98170 | 38.80672 | 7625 ft | 9 kts | 22° |
| 2026-05-04 11:20 | 8.98226 | 38.80697 | 7625 ft | 8 kts | 23° |
| 2026-05-04 11:20 | 8.98267 | 38.80676 | 7624 ft | 7 kts | 277° |
| 2026-05-04 11:20 | 8.98251 | 38.80611 | 7625 ft | 11 kts | 252° |
| 2026-05-04 11:22 | 8.98088 | 38.80146 | 7636 ft | 17 kts | 344° |
| 2026-05-04 11:22 | 8.98203 | 38.80112 | 7633 ft | 17 kts | 343° |
| 2026-05-04 11:23 | 8.98279 | 38.80083 | 7630 ft | 9 kts | 345° |
| 2026-05-04 11:23 | 8.98330 | 38.80070 | 7627 ft | 5 kts | 344° |